METAR Data
IDs: Format: Raw Decoded Include TAF

Data at: 2200 UTC 01 Dec 2021

LIQC 012055Z 25011KT CAVOK 14/11 Q1013 RMK SKC QUK / QUL / VIS MAR 20 KM VIS MIN 9999